sensor_id;sensor_type;location;lat;lon;timestamp;pressure;altitude;pressure_sealevel;temperature;humidity
76156;BME280;64906;51.290;7.348;2023-04-25T00:01:02;98005.34;;;19.67;41.85
76156;BME280;64906;51.290;7.348;2023-04-25T00:03:28;98000.19;;;19.66;41.84
76156;BME280;64906;51.290;7.348;2023-04-25T00:05:54;97994.53;;;19.62;42.09
76156;BME280;64906;51.290;7.348;2023-04-25T00:08:22;97995.63;;;19.61;42.02
76156;BME280;64906;51.290;7.348;2023-04-25T00:10:47;98000.59;;;19.59;42.03
76156;BME280;64906;51.290;7.348;2023-04-25T00:13:14;98008.22;;;19.62;42.08
76156;BME280;64906;51.290;7.348;2023-04-25T00:15:40;98005.47;;;19.62;41.78
76156;BME280;64906;51.290;7.348;2023-04-25T00:18:06;98003.63;;;19.58;41.81
76156;BME280;64906;51.290;7.348;2023-04-25T00:20:32;98003.16;;;19.56;41.95
76156;BME280;64906;51.290;7.348;2023-04-25T00:22:57;97999.28;;;19.57;41.73
76156;BME280;64906;51.290;7.348;2023-04-25T00:25:22;98003.63;;;19.58;42.05
76156;BME280;64906;51.290;7.348;2023-04-25T00:27:48;98003.16;;;19.56;41.97
76156;BME280;64906;51.290;7.348;2023-04-25T00:30:14;98002.03;;;19.57;41.85
76156;BME280;64906;51.290;7.348;2023-04-25T00:32:39;97994.34;;;19.59;41.81
76156;BME280;64906;51.290;7.348;2023-04-25T00:35:05;97988.03;;;19.58;41.75
76156;BME280;64906;51.290;7.348;2023-04-25T00:37:30;98000.13;;;19.57;41.80
76156;BME280;64906;51.290;7.348;2023-04-25T00:39:57;98000.41;;;19.56;42.04
76156;BME280;64906;51.290;7.348;2023-04-25T00:42:24;98001.81;;;19.53;42.07
76156;BME280;64906;51.290;7.348;2023-04-25T00:44:50;97998.28;;;19.53;41.90
76156;BME280;64906;51.290;7.348;2023-04-25T00:47:16;98001.31;;;19.51;42.02
76156;BME280;64906;51.290;7.348;2023-04-25T00:49:41;97996.97;;;19.50;41.89
76156;BME280;64906;51.290;7.348;2023-04-25T00:52:07;98002.44;;;19.50;41.98
76156;BME280;64906;51.290;7.348;2023-04-25T00:54:32;98004.06;;;19.51;41.95
76156;BME280;64906;51.290;7.348;2023-04-25T00:56:58;98007.91;;;19.50;41.98
76156;BME280;64906;51.290;7.348;2023-04-25T00:59:23;98003.84;;;19.48;41.87
76156;BME280;64906;51.290;7.348;2023-04-25T01:01:50;97999.69;;;19.50;41.80
76156;BME280;64906;51.290;7.348;2023-04-25T01:04:15;97993.72;;;19.48;42.08
76156;BME280;64906;51.290;7.348;2023-04-25T01:06:40;97998.38;;;19.48;42.01
76156;BME280;64906;51.290;7.348;2023-04-25T01:09:06;97994.84;;;19.47;42.01
76156;BME280;64906;51.290;7.348;2023-04-25T01:11:32;97994.03;;;19.47;41.97
76156;BME280;64906;51.290;7.348;2023-04-25T01:13:58;97989.66;;;19.46;41.92
76156;BME280;64906;51.290;7.348;2023-04-25T01:16:24;97994.34;;;19.45;41.88
76156;BME280;64906;51.290;7.348;2023-04-25T01:18:49;97992.41;;;19.46;41.93
76156;BME280;64906;51.290;7.348;2023-04-25T01:21:16;98002.84;;;19.44;41.75
76156;BME280;64906;51.290;7.348;2023-04-25T01:23:42;97992.72;;;19.44;41.92
76156;BME280;64906;51.290;7.348;2023-04-25T01:26:11;98003.16;;;19.42;42.15
76156;BME280;64906;51.290;7.348;2023-04-25T01:28:37;98002.34;;;19.42;42.00
76156;BME280;64906;51.290;7.348;2023-04-25T01:31:04;98001.50;;;19.41;42.04
76156;BME280;64906;51.290;7.348;2023-04-25T01:33:30;98006.19;;;19.41;42.07
76156;BME280;64906;51.290;7.348;2023-04-25T01:35:56;98001.81;;;19.40;42.07
76156;BME280;64906;51.290;7.348;2023-04-25T01:38:21;98001.81;;;19.40;41.99
76156;BME280;64906;51.290;7.348;2023-04-25T01:40:48;98001.03;;;19.39;42.08
76156;BME280;64906;51.290;7.348;2023-04-25T01:43:14;98003.78;;;19.39;42.02
76156;BME280;64906;51.290;7.348;2023-04-25T01:45:43;98001.63;;;19.36;41.80
76156;BME280;64906;51.290;7.348;2023-04-25T01:48:09;98011.47;;;19.37;41.83
76156;BME280;64906;51.290;7.348;2023-04-25T01:50:35;98009.34;;;19.34;41.72
76156;BME280;64906;51.290;7.348;2023-04-25T01:53:00;98014.19;;;19.37;41.20
76156;BME280;64906;51.290;7.348;2023-04-25T01:55:27;98016.41;;;19.35;42.01
76156;BME280;64906;51.290;7.348;2023-04-25T01:57:52;98016.94;;;19.37;42.04
76156;BME280;64906;51.290;7.348;2023-04-25T02:00:18;98014.81;;;19.34;42.00
76156;BME280;64906;51.290;7.348;2023-04-25T02:02:43;98023.03;;;19.34;41.93
76156;BME280;64906;51.290;7.348;2023-04-25T02:05:08;98023.31;;;19.33;42.36
76156;BME280;64906;51.290;7.348;2023-04-25T02:07:34;98022.19;;;19.34;41.92
76156;BME280;64906;51.290;7.348;2023-04-25T02:09:59;98024.72;;;19.30;42.01
76156;BME280;64906;51.290;7.348;2023-04-25T02:12:25;98021.69;;;19.32;41.95
76156;BME280;64906;51.290;7.348;2023-04-25T02:14:51;98026.66;;;19.30;41.83
76156;BME280;64906;51.290;7.348;2023-04-25T02:17:16;98030.72;;;19.32;41.86
76156;BME280;64906;51.290;7.348;2023-04-25T02:19:42;98031.31;;;19.29;41.80
76156;BME280;64906;51.290;7.348;2023-04-25T02:22:08;98036.25;;;19.27;41.96
76156;BME280;64906;51.290;7.348;2023-04-25T02:24:33;98035.13;;;19.28;41.81
76156;BME280;64906;51.290;7.348;2023-04-25T02:26:59;98032.94;;;19.30;41.78
76156;BME280;64906;51.290;7.348;2023-04-25T02:29:25;98034.06;;;19.29;41.83
76156;BME280;64906;51.290;7.348;2023-04-25T02:31:50;98039.81;;;19.28;42.09
76156;BME280;64906;51.290;7.348;2023-04-25T02:34:15;98041.50;;;19.24;41.93
76156;BME280;64906;51.290;7.348;2023-04-25T02:36:40;98038.78;;;19.24;41.95
76156;BME280;64906;51.290;7.348;2023-04-25T02:39:06;98041.72;;;19.27;41.91
76156;BME280;64906;51.290;7.348;2023-04-25T02:41:31;98033.31;;;19.24;41.89
76156;BME280;64906;51.290;7.348;2023-04-25T02:43:57;98037.97;;;19.23;42.12
76156;BME280;64906;51.290;7.348;2023-04-25T02:46:22;98045.06;;;19.24;41.81
76156;BME280;64906;51.290;7.348;2023-04-25T02:48:47;98042.94;;;19.21;41.93
76156;BME280;64906;51.290;7.348;2023-04-25T02:51:13;98045.97;;;19.20;42.01
76156;BME280;64906;51.290;7.348;2023-04-25T02:53:38;98042.94;;;19.21;41.79
76156;BME280;64906;51.290;7.348;2023-04-25T02:56:04;98041.31;;;19.20;41.88
76156;BME280;64906;51.290;7.348;2023-04-25T02:58:29;98040.22;;;19.21;41.97
76156;BME280;64906;51.290;7.348;2023-04-25T03:00:55;98041.59;;;19.19;41.97
76156;BME280;64906;51.290;7.348;2023-04-25T03:03:20;98036.44;;;19.17;41.78
76156;BME280;64906;51.290;7.348;2023-04-25T03:05:49;98046.56;;;19.17;42.01
76156;BME280;64906;51.290;7.348;2023-04-25T03:08:16;98036.44;;;19.17;41.81
76156;BME280;64906;51.290;7.348;2023-04-25T03:10:41;98038.66;;;19.15;41.87
76156;BME280;64906;51.290;7.348;2023-04-25T03:13:07;98044.94;;;19.16;41.91
76156;BME280;64906;51.290;7.348;2023-04-25T03:15:32;98038.66;;;19.15;41.96
76156;BME280;64906;51.290;7.348;2023-04-25T03:17:57;98040.91;;;19.13;42.14
76156;BME280;64906;51.290;7.348;2023-04-25T03:20:23;98046.06;;;19.15;42.02
76156;BME280;64906;51.290;7.348;2023-04-25T03:22:48;98038.66;;;19.15;41.99
76156;BME280;64906;51.290;7.348;2023-04-25T03:25:13;98049.59;;;19.15;41.94
76156;BME280;64906;51.290;7.348;2023-04-25T03:27:39;98049.13;;;19.13;42.21
76156;BME280;64906;51.290;7.348;2023-04-25T03:30:05;98046.38;;;19.13;42.00
76156;BME280;64906;51.290;7.348;2023-04-25T03:32:30;98048.00;;;19.14;42.00
76156;BME280;64906;51.290;7.348;2023-04-25T03:34:55;98049.69;;;19.10;41.94
76156;BME280;64906;51.290;7.348;2023-04-25T03:37:20;98044.75;;;19.12;42.01
76156;BME280;64906;51.290;7.348;2023-04-25T03:39:46;98048.59;;;19.11;41.80
76156;BME280;64906;51.290;7.348;2023-04-25T03:42:11;98047.25;;;19.09;42.04
76156;BME280;64906;51.290;7.348;2023-04-25T03:44:36;98050.28;;;19.07;41.92
76156;BME280;64906;51.290;7.348;2023-04-25T03:47:02;98054.69;;;19.08;41.86
76156;BME280;64906;51.290;7.348;2023-04-25T03:49:27;98057.72;;;19.07;42.01
76156;BME280;64906;51.290;7.348;2023-04-25T03:51:52;98063.19;;;19.07;41.99
76156;BME280;64906;51.290;7.348;2023-04-25T03:54:17;98064.28;;;19.06;41.98
76156;BME280;64906;51.290;7.348;2023-04-25T03:56:43;98058.81;;;19.06;42.04
76156;BME280;64906;51.290;7.348;2023-04-25T03:59:08;98063.47;;;19.05;42.09
76156;BME280;64906;51.290;7.348;2023-04-25T04:01:33;98064.50;;;19.09;41.92
76156;BME280;64906;51.290;7.348;2023-04-25T04:03:59;98066.19;;;19.05;42.09
76156;BME280;64906;51.290;7.348;2023-04-25T04:06:24;98064.81;;;19.08;42.11
76156;BME280;64906;51.290;7.348;2023-04-25T04:08:49;98062.88;;;19.08;41.93
76156;BME280;64906;51.290;7.348;2023-04-25T04:11:15;98068.66;;;19.07;42.08
76156;BME280;64906;51.290;7.348;2023-04-25T04:13:40;98066.41;;;19.09;42.12
76156;BME280;64906;51.290;7.348;2023-04-25T04:16:05;98065.91;;;19.07;42.34
76156;BME280;64906;51.290;7.348;2023-04-25T04:18:31;98074.63;;;19.09;42.17
76156;BME280;64906;51.290;7.348;2023-04-25T04:20:58;98085.84;;;19.07;42.09
76156;BME280;64906;51.290;7.348;2023-04-25T04:23:23;98079.78;;;19.10;42.02
76156;BME280;64906;51.290;7.348;2023-04-25T04:25:49;98079.28;;;19.08;42.16
76156;BME280;64906;51.290;7.348;2023-04-25T04:28:14;98075.94;;;19.11;42.21
76156;BME280;64906;51.290;7.348;2023-04-25T04:30:41;98074.31;;;19.10;42.29
76156;BME280;64906;51.290;7.348;2023-04-25T04:33:07;98082.72;;;19.14;42.43
76156;BME280;64906;51.290;7.348;2023-04-25T04:35:33;98078.69;;;19.11;42.47
76156;BME280;64906;51.290;7.348;2023-04-25T04:37:58;98077.88;;;19.11;42.49
76156;BME280;64906;51.290;7.348;2023-04-25T04:40:24;98079.00;;;19.10;42.44
76156;BME280;64906;51.290;7.348;2023-04-25T04:42:50;98074.91;;;19.07;42.66
76156;BME280;64906;51.290;7.348;2023-04-25T04:45:17;98082.81;;;19.09;42.95
76156;BME280;64906;51.290;7.348;2023-04-25T04:47:43;98088.00;;;19.10;42.60
76156;BME280;64906;51.290;7.348;2023-04-25T04:50:09;98085.84;;;19.07;42.67
76156;BME280;64906;51.290;7.348;2023-04-25T04:52:36;98090.81;;;19.05;42.99
76156;BME280;64906;51.290;7.348;2023-04-25T04:55:02;98096.00;;;19.07;42.93
76156;BME280;64906;51.290;7.348;2023-04-25T04:57:29;98094.66;;;19.04;43.06
76156;BME280;64906;51.290;7.348;2023-04-25T04:59:54;98096.00;;;19.07;43.51
76156;BME280;64906;51.290;7.348;2023-04-25T05:02:20;98105.31;;;19.06;43.14
76156;BME280;64906;51.290;7.348;2023-04-25T05:04:45;98106.72;;;19.03;43.16
76156;BME280;64906;51.290;7.348;2023-04-25T05:07:10;98120.41;;;19.03;43.29
76156;BME280;64906;51.290;7.348;2023-04-25T05:09:36;98122.03;;;19.04;43.17
76156;BME280;64906;51.290;7.348;2023-04-25T05:12:01;98135.19;;;19.02;43.37
76156;BME280;64906;51.290;7.348;2023-04-25T05:14:27;98138.13;;;19.06;43.61
76156;BME280;64906;51.290;7.348;2023-04-25T05:16:52;98135.41;;;19.06;43.20
76156;BME280;64906;51.290;7.348;2023-04-25T05:19:17;98139.47;;;19.08;43.07
76156;BME280;64906;51.290;7.348;2023-04-25T05:21:43;98141.19;;;19.04;43.31
76156;BME280;64906;51.290;7.348;2023-04-25T05:24:08;98140.88;;;19.06;43.42
76156;BME280;64906;51.290;7.348;2023-04-25T05:26:34;98150.72;;;19.07;43.28
76156;BME280;64906;51.290;7.348;2023-04-25T05:29:00;98143.59;;;19.06;43.49
76156;BME280;64906;51.290;7.348;2023-04-25T05:31:25;98150.72;;;19.07;43.44
76156;BME280;64906;51.290;7.348;2023-04-25T05:33:51;98147.16;;;19.06;43.72
76156;BME280;64906;51.290;7.348;2023-04-25T05:36:18;98151.22;;;19.09;43.63
76156;BME280;64906;51.290;7.348;2023-04-25T05:38:44;98150.13;;;19.10;43.51
76156;BME280;64906;51.290;7.348;2023-04-25T05:41:10;98151.22;;;19.09;43.59
76156;BME280;64906;51.290;7.348;2023-04-25T05:43:35;98155.59;;;19.10;43.51
76156;BME280;64906;51.290;7.348;2023-04-25T05:46:00;98158.56;;;19.13;43.55
76156;BME280;64906;51.290;7.348;2023-04-25T05:48:25;98162.06;;;19.14;43.64
76156;BME280;64906;51.290;7.348;2023-04-25T05:50:51;98163.13;;;19.18;43.70
76156;BME280;64906;51.290;7.348;2023-04-25T05:53:17;98164.72;;;19.19;43.62
76156;BME280;64906;51.290;7.348;2023-04-25T05:55:42;98170.81;;;19.16;43.82
76156;BME280;64906;51.290;7.348;2023-04-25T05:58:07;98171.03;;;19.19;43.98
76156;BME280;64906;51.290;7.348;2023-04-25T06:00:33;98170.72;;;19.21;43.66
76156;BME280;64906;51.290;7.348;2023-04-25T06:02:59;98176.41;;;19.24;43.79
76156;BME280;64906;51.290;7.348;2023-04-25T06:05:24;98181.59;;;19.26;43.70
76156;BME280;64906;51.290;7.348;2023-04-25T06:07:50;98190.09;;;19.24;43.84
76156;BME280;64906;51.290;7.348;2023-04-25T06:10:15;98188.97;;;19.25;43.97
76156;BME280;64906;51.290;7.348;2023-04-25T06:12:40;98184.03;;;19.27;43.84
76156;BME280;64906;51.290;7.348;2023-04-25T06:15:06;98190.31;;;19.28;43.88
76156;BME280;64906;51.290;7.348;2023-04-25T06:17:32;98192.78;;;19.29;43.78
76156;BME280;64906;51.290;7.348;2023-04-25T06:19:57;98186.72;;;19.32;43.66
76156;BME280;64906;51.290;7.348;2023-04-25T06:22:23;98186.41;;;19.34;43.92
76156;BME280;64906;51.290;7.348;2023-04-25T06:24:48;98178.50;;;19.32;43.94
76156;BME280;64906;51.290;7.348;2023-04-25T06:27:13;98185.50;;;19.38;43.83
76156;BME280;64906;51.290;7.348;2023-04-25T06:29:38;98194.53;;;19.39;44.02
76156;BME280;64906;51.290;7.348;2023-04-25T06:32:04;98195.84;;;19.41;43.88
76156;BME280;64906;51.290;7.348;2023-04-25T06:34:30;98192.81;;;19.43;43.75
76156;BME280;64906;51.290;7.348;2023-04-25T06:36:55;98191.09;;;19.47;43.92
76156;BME280;64906;51.290;7.348;2023-04-25T06:39:20;98184.50;;;19.48;43.89
76156;BME280;64906;51.290;7.348;2023-04-25T06:41:48;98189.41;;;19.51;43.94
76156;BME280;64906;51.290;7.348;2023-04-25T06:44:14;98199.84;;;19.49;43.86
76156;BME280;64906;51.290;7.348;2023-04-25T06:46:39;98194.59;;;19.52;43.63
76156;BME280;64906;51.290;7.348;2023-04-25T06:49:04;98194.81;;;19.56;43.74
76156;BME280;64906;51.290;7.348;2023-04-25T06:51:30;98191.75;;;19.57;43.80
76156;BME280;64906;51.290;7.348;2023-04-25T06:53:55;98192.84;;;19.56;43.77
76156;BME280;64906;51.290;7.348;2023-04-25T06:56:21;98201.88;;;19.57;43.54
76156;BME280;64906;51.290;7.348;2023-04-25T06:58:46;98203.81;;;19.56;43.53
76156;BME280;64906;51.290;7.348;2023-04-25T07:01:11;98203.19;;;19.59;43.63
76156;BME280;64906;51.290;7.348;2023-04-25T07:03:37;98205.94;;;19.59;43.17
76156;BME280;64906;51.290;7.348;2023-04-25T07:06:03;98214.06;;;19.64;43.44
76156;BME280;64906;51.290;7.348;2023-04-25T07:08:29;98213.75;;;19.66;43.36
76156;BME280;64906;51.290;7.348;2023-04-25T07:10:54;98211.84;;;19.66;43.29
76156;BME280;64906;51.290;7.348;2023-04-25T07:13:20;98208.59;;;19.64;43.48
76156;BME280;64906;51.290;7.348;2023-04-25T07:15:45;98204.63;;;19.57;43.27
76156;BME280;64906;51.290;7.348;2023-04-25T07:18:13;98219.84;;;19.63;43.19
76156;BME280;64906;51.290;7.348;2023-04-25T07:20:38;98222.28;;;19.64;43.21
76156;BME280;64906;51.290;7.348;2023-04-25T07:23:04;98226.88;;;19.69;42.99
76156;BME280;64906;51.290;7.348;2023-04-25T07:25:29;98235.09;;;19.69;43.11
76156;BME280;64906;51.290;7.348;2023-04-25T07:27:55;98238.31;;;19.71;43.20
76156;BME280;64906;51.290;7.348;2023-04-25T07:30:21;98241.88;;;19.71;43.22
76156;BME280;64906;51.290;7.348;2023-04-25T07:32:46;98241.38;;;19.69;43.04
76156;BME280;64906;51.290;7.348;2023-04-25T07:35:12;98233.88;;;19.75;42.95
76156;BME280;64906;51.290;7.348;2023-04-25T07:37:37;98239.06;;;19.76;42.81
76156;BME280;64906;51.290;7.348;2023-04-25T07:40:03;98244.53;;;19.76;42.99
76156;BME280;64906;51.290;7.348;2023-04-25T07:42:29;98237.53;;;19.70;43.06
76156;BME280;64906;51.290;7.348;2023-04-25T07:44:55;98241.38;;;19.69;43.13
76156;BME280;64906;51.290;7.348;2023-04-25T07:47:20;98243.00;;;19.70;42.78
76156;BME280;64906;51.290;7.348;2023-04-25T07:49:45;98253.34;;;19.73;42.71
76156;BME280;64906;51.290;7.348;2023-04-25T07:52:11;98256.19;;;19.68;42.65
76156;BME280;64906;51.290;7.348;2023-04-25T07:54:36;98258.84;;;19.73;42.59
76156;BME280;64906;51.290;7.348;2023-04-25T07:57:02;98264.91;;;19.70;42.59
76156;BME280;64906;51.290;7.348;2023-04-25T07:59:27;98265.31;;;19.77;42.63
76156;BME280;64906;51.290;7.348;2023-04-25T08:01:53;98268.56;;;19.79;42.63
76156;BME280;64906;51.290;7.348;2023-04-25T08:04:18;98272.13;;;19.80;42.63
76156;BME280;64906;51.290;7.348;2023-04-25T08:06:44;98274.88;;;19.80;42.46
76156;BME280;64906;51.290;7.348;2023-04-25T08:09:09;98278.94;;;19.82;42.51
76156;BME280;64906;51.290;7.348;2023-04-25T08:11:35;98278.94;;;19.82;42.46
76156;BME280;64906;51.290;7.348;2023-04-25T08:14:01;98289.28;;;19.85;42.43
76156;BME280;64906;51.290;7.348;2023-04-25T08:16:27;98292.53;;;19.87;42.45
76156;BME280;64906;51.290;7.348;2023-04-25T08:18:52;98300.16;;;19.90;42.27
76156;BME280;64906;51.290;7.348;2023-04-25T08:21:17;98294.88;;;19.94;42.26
76156;BME280;64906;51.290;7.348;2023-04-25T08:23:43;98295.41;;;19.96;42.38
76156;BME280;64906;51.290;7.348;2023-04-25T08:26:08;98310.22;;;19.95;42.48
76156;BME280;64906;51.290;7.348;2023-04-25T08:28:33;98306.06;;;19.97;42.02
76156;BME280;64906;51.290;7.348;2023-04-25T08:30:59;98302.72;;;20.00;42.29
76156;BME280;64906;51.290;7.348;2023-04-25T08:33:25;98312.38;;;19.98;42.24
76156;BME280;64906;51.290;7.348;2023-04-25T08:35:50;98314.81;;;19.99;42.21
76156;BME280;64906;51.290;7.348;2023-04-25T08:38:17;98325.16;;;20.02;42.08
76156;BME280;64906;51.290;7.348;2023-04-25T08:40:43;98321.59;;;20.02;42.27
76156;BME280;64906;51.290;7.348;2023-04-25T08:43:09;98329.72;;;20.07;42.03
76156;BME280;64906;51.290;7.348;2023-04-25T08:45:41;98324.75;;;20.09;41.95
76156;BME280;64906;51.290;7.348;2023-04-25T08:48:16;98327.16;;;20.16;41.99
76156;BME280;64906;51.290;7.348;2023-04-25T08:50:49;98329.59;;;20.17;42.06
76156;BME280;64906;51.290;7.348;2023-04-25T08:53:16;98335.38;;;20.16;42.24
76156;BME280;64906;51.290;7.348;2023-04-25T08:55:45;98342.69;;;20.20;41.62
76156;BME280;64906;51.290;7.348;2023-04-25T08:58:12;98345.22;;;20.17;41.69
76156;BME280;64906;51.290;7.348;2023-04-25T09:00:38;98348.25;;;20.15;41.69
76156;BME280;64906;51.290;7.348;2023-04-25T09:03:04;98351.88;;;20.11;42.04
76156;BME280;64906;51.290;7.348;2023-04-25T09:05:29;98350.19;;;20.15;42.03
76156;BME280;64906;51.290;7.348;2023-04-25T09:07:55;98355.38;;;20.16;41.57
76156;BME280;64906;51.290;7.348;2023-04-25T09:10:21;98358.13;;;20.16;41.88
76156;BME280;64906;51.290;7.348;2023-04-25T09:13:02;98369.38;;;20.15;41.80
76156;BME280;64906;51.290;7.348;2023-04-25T09:15:28;98371.81;;;20.16;41.84
76156;BME280;64906;51.290;7.348;2023-04-25T09:17:56;98370.59;;;20.22;41.40
76156;BME280;64906;51.290;7.348;2023-04-25T09:20:22;98379.25;;;20.29;41.43
76156;BME280;64906;51.290;7.348;2023-04-25T09:22:47;98374.31;;;20.31;41.26
76156;BME280;64906;51.290;7.348;2023-04-25T09:25:13;98368.91;;;20.26;41.50
76156;BME280;64906;51.290;7.348;2023-04-25T09:27:52;98365.84;;;20.28;41.41
76156;BME280;64906;51.290;7.348;2023-04-25T09:30:17;98376.81;;;20.28;41.21
76156;BME280;64906;51.290;7.348;2023-04-25T09:32:43;98385.06;;;20.28;41.27
76156;BME280;64906;51.290;7.348;2023-04-25T09:35:09;98385.34;;;20.26;41.37
76156;BME280;64906;51.290;7.348;2023-04-25T09:37:34;98385.84;;;20.28;41.36
76156;BME280;64906;51.290;7.348;2023-04-25T09:40:05;98381.19;;;20.29;41.36
76156;BME280;64906;51.290;7.348;2023-04-25T09:42:31;98384.44;;;20.31;41.44
76156;BME280;64906;51.290;7.348;2023-04-25T09:45:00;98394.81;;;20.34;41.18
76156;BME280;64906;51.290;7.348;2023-04-25T09:47:27;98389.84;;;20.36;40.96
76156;BME280;64906;51.290;7.348;2023-04-25T09:49:54;98394.19;;;20.37;41.08
76156;BME280;64906;51.290;7.348;2023-04-25T09:52:24;98396.63;;;20.38;40.93
76156;BME280;64906;51.290;7.348;2023-04-25T09:54:51;98396.63;;;20.38;41.00
76156;BME280;64906;51.290;7.348;2023-04-25T09:57:17;98403.53;;;20.36;40.71
76156;BME280;64906;51.290;7.348;2023-04-25T10:02:12;98406.81;;;20.38;40.70
76156;BME280;64906;51.290;7.348;2023-04-25T10:04:38;98407.81;;;20.42;40.68
76156;BME280;64906;51.290;7.348;2023-04-25T10:07:07;98406.69;;;20.43;40.46
76156;BME280;64906;51.290;7.348;2023-04-25T10:09:33;98401.13;;;20.48;40.43
76156;BME280;64906;51.290;7.348;2023-04-25T10:12:02;98412.91;;;20.48;40.60
76156;BME280;64906;51.290;7.348;2023-04-25T10:14:31;98400.31;;;20.47;40.38
76156;BME280;64906;51.290;7.348;2023-04-25T10:17:00;98418.25;;;20.40;40.45
76156;BME280;64906;51.290;7.348;2023-04-25T10:19:26;98419.31;;;20.44;40.85
76156;BME280;64906;51.290;7.348;2023-04-25T10:22:20;98419.00;;;20.45;40.33
76156;BME280;64906;51.290;7.348;2023-04-25T10:24:49;98425.78;;;20.48;40.70
76156;BME280;64906;51.290;7.348;2023-04-25T10:27:16;98430.47;;;20.47;40.40
76156;BME280;64906;51.290;7.348;2023-04-25T10:29:41;98428.53;;;20.48;40.77
76156;BME280;64906;51.290;7.348;2023-04-25T10:32:08;98439.50;;;20.48;40.49
76156;BME280;64906;51.290;7.348;2023-04-25T10:34:44;98427.44;;;20.49;40.51
76156;BME280;64906;51.290;7.348;2023-04-25T10:37:12;98441.16;;;20.49;40.49
76156;BME280;64906;51.290;7.348;2023-04-25T10:39:40;98432.63;;;20.50;40.28
76156;BME280;64906;51.290;7.348;2023-04-25T10:42:06;98434.63;;;20.45;40.30
76156;BME280;64906;51.290;7.348;2023-04-25T10:44:33;98434.03;;;20.48;40.15
76156;BME280;64906;51.290;7.348;2023-04-25T10:47:00;98433.72;;;20.49;40.20
76156;BME280;64906;51.290;7.348;2023-04-25T10:50:03;98443.59;;;20.50;39.87
76156;BME280;64906;51.290;7.348;2023-04-25T10:52:27;98442.47;;;20.51;39.78
76156;BME280;64906;51.290;7.348;2023-04-25T10:54:55;98435.66;;;20.49;40.16
76156;BME280;64906;51.290;7.348;2023-04-25T10:57:31;98434.75;;;20.53;40.03
76156;BME280;64906;51.290;7.348;2023-04-25T11:00:16;98439.94;;;20.55;39.91
76156;BME280;64906;51.290;7.348;2023-04-25T11:02:48;98432.84;;;20.54;40.13
76156;BME280;64906;51.290;7.348;2023-04-25T11:05:32;98431.19;;;20.53;39.91
76156;BME280;64906;51.290;7.348;2023-04-25T11:07:58;98436.69;;;20.53;39.78
76156;BME280;64906;51.290;7.348;2023-04-25T11:10:28;98438.94;;;20.51;39.91
76156;BME280;64906;51.290;7.348;2023-04-25T11:12:54;98430.19;;;20.49;39.84
76156;BME280;64906;51.290;7.348;2023-04-25T11:15:20;98445.50;;;20.50;39.82
76156;BME280;64906;51.290;7.348;2023-04-25T11:17:45;98443.59;;;20.50;39.86
76156;BME280;64906;51.290;7.348;2023-04-25T11:20:12;98441.16;;;20.49;39.86
76156;BME280;64906;51.290;7.348;2023-04-25T11:22:39;98443.81;;;20.54;39.65
76156;BME280;64906;51.290;7.348;2023-04-25T11:25:08;98451.72;;;20.55;39.80
76156;BME280;64906;51.290;7.348;2023-04-25T11:27:37;98447.06;;;20.56;40.01
76156;BME280;64906;51.290;7.348;2023-04-25T11:30:11;98447.84;;;20.56;39.65
76156;BME280;64906;51.290;7.348;2023-04-25T11:32:36;98447.06;;;20.56;39.87
76156;BME280;64906;51.290;7.348;2023-04-25T11:35:01;98451.22;;;20.53;39.93
76156;BME280;64906;51.290;7.348;2023-04-25T11:37:28;98442.47;;;20.51;39.86
76156;BME280;64906;51.290;7.348;2023-04-25T11:39:53;98456.78;;;20.48;40.09
76156;BME280;64906;51.290;7.348;2023-04-25T11:42:18;98458.41;;;20.49;40.22
76156;BME280;64906;51.290;7.348;2023-04-25T11:44:45;98466.84;;;20.53;40.35
76156;BME280;64906;51.290;7.348;2023-04-25T11:47:10;98473.97;;;20.54;40.15
76156;BME280;64906;51.290;7.348;2023-04-25T11:49:35;98480.56;;;20.53;40.29
76156;BME280;64906;51.290;7.348;2023-04-25T11:52:01;98483.00;;;20.54;40.49
76156;BME280;64906;51.290;7.348;2023-04-25T11:54:26;98477.22;;;20.56;40.13
76156;BME280;64906;51.290;7.348;2023-04-25T11:56:51;98487.06;;;20.57;40.11
76156;BME280;64906;51.290;7.348;2023-04-25T11:59:23;98487.91;;;20.57;40.20
76156;BME280;64906;51.290;7.348;2023-04-25T12:01:49;98484.84;;;20.59;40.30
76156;BME280;64906;51.290;7.348;2023-04-25T12:04:19;98486.16;;;20.61;39.79
76156;BME280;64906;51.290;7.348;2023-04-25T12:06:47;98489.72;;;20.62;40.16
76156;BME280;64906;51.290;7.348;2023-04-25T12:09:20;98482.34;;;20.62;40.00
76156;BME280;64906;51.290;7.348;2023-04-25T12:11:53;98476.53;;;20.64;40.01
76156;BME280;64906;51.290;7.348;2023-04-25T12:14:23;98483.13;;;20.63;40.05
76156;BME280;64906;51.290;7.348;2023-04-25T12:16:54;98487.50;;;20.64;39.91
76156;BME280;64906;51.290;7.348;2023-04-25T12:19:20;98484.78;;;20.64;39.88
76156;BME280;64906;51.290;7.348;2023-04-25T12:21:47;98479.59;;;20.62;40.03
76156;BME280;64906;51.290;7.348;2023-04-25T12:24:17;98486.47;;;20.60;39.90
76156;BME280;64906;51.290;7.348;2023-04-25T12:26:48;98485.06;;;20.62;39.71
76156;BME280;64906;51.290;7.348;2023-04-25T12:29:24;98486.09;;;20.66;39.82
76156;BME280;64906;51.290;7.348;2023-04-25T12:31:51;98487.69;;;20.67;39.63
76156;BME280;64906;51.290;7.348;2023-04-25T12:34:18;98487.13;;;20.70;39.84
76156;BME280;64906;51.290;7.348;2023-04-25T12:36:44;98492.38;;;20.67;39.78
76156;BME280;64906;51.290;7.348;2023-04-25T12:39:21;98487.69;;;20.67;39.74
76156;BME280;64906;51.290;7.348;2023-04-25T12:41:48;98492.59;;;20.70;39.46
76156;BME280;64906;51.290;7.348;2023-04-25T12:44:14;98495.13;;;20.67;39.49
76156;BME280;64906;51.290;7.348;2023-04-25T12:46:40;98496.53;;;20.64;39.55
76156;BME280;64906;51.290;7.348;2023-04-25T12:49:06;98484.34;;;20.57;39.79
76156;BME280;64906;51.290;7.348;2023-04-25T12:51:35;98500.69;;;20.62;39.48
76156;BME280;64906;51.290;7.348;2023-04-25T12:54:02;98491.97;;;20.60;39.75
76156;BME280;64906;51.290;7.348;2023-04-25T12:56:28;98506.78;;;20.59;39.52
76156;BME280;64906;51.290;7.348;2023-04-25T12:58:54;98507.28;;;20.61;39.67